Time;durP1;ratioP1;P1;durP2;ratioP2;P2;SDS_P1;SDS_P2;PMS_P1;PMS_P2;Temp;Humidity;BMP_temperature;BMP_pressure;BME280_temperature;BME280_humidity;BME280_pressure;Samples;Min_cycle;Max_cycle;Signal;HPM_P1;HPM_P2
2023/03/22 00:00:41;;;;;;;;;;;;;;;11.29;71.58;100321.16;5003413;28;19921;-85
2023/03/22 00:03:06;;;;;;;;;;;;;;;11.30;71.67;100321.97;5027777;28;20427;-84
2023/03/22 00:05:31;;;;;;;;;;;;;;;11.31;71.58;100319.16;4995799;28;19914;-84
2023/03/22 00:07:57;;;;;;;;;;;;;;;11.34;71.56;100318.00;5016237;28;19914;-84
2023/03/22 00:10:24;;;;;;;;;;;;;;;11.35;70.92;100314.41;4994617;28;19917;-84
2023/03/22 00:12:49;;;;;;;;;;;;;;;11.39;71.18;100315.72;5006365;28;19924;-84
2023/03/22 00:15:15;;;;;;;;;;;;;;;11.41;70.98;100319.03;4997590;28;19913;-84
2023/03/22 00:17:40;;;;;;;;;;;;;;;11.45;70.54;100317.72;5000913;28;20255;-84
2023/03/22 00:20:06;;;;;;;;;;;;;;;11.48;70.48;100312.09;5004149;28;20385;-84
2023/03/22 00:22:31;;;;;;;;;;;;;;;11.47;70.12;100302.50;5009401;28;20029;-84
2023/03/22 00:24:57;;;;;;;;;;;;;;;11.49;70.19;100313.75;4993791;28;19913;-84
2023/03/22 00:27:22;;;;;;;;;;;;;;;11.54;70.19;100306.16;4996214;28;19917;-84
2023/03/22 00:29:47;;;;;;;;;;;;;;;11.51;70.34;100313.59;5012573;28;19979;-84
2023/03/22 00:32:12;;;;;;;;;;;;;;;11.48;70.32;100297.03;5004871;28;20436;-84
2023/03/22 00:34:38;;;;;;;;;;;;;;;11.48;70.42;100304.16;4995557;28;19943;-84
2023/03/22 00:37:03;;;;;;;;;;;;;;;11.47;70.65;100300.69;5012136;28;20259;-84
2023/03/22 00:39:28;;;;;;;;;;;;;;;11.47;70.25;100308.63;5021550;28;19917;-84
2023/03/22 00:41:54;;;;;;;;;;;;;;;11.47;70.08;100298.03;5019488;28;19917;-85
2023/03/22 00:44:20;;;;;;;;;;;;;;;11.47;70.48;100294.56;5011723;28;19913;-84
2023/03/22 00:46:45;;;;;;;;;;;;;;;11.49;70.42;100297.88;5009854;28;19953;-85
2023/03/22 00:49:11;;;;;;;;;;;;;;;11.47;70.47;100295.38;5016063;28;20272;-85
2023/03/22 00:51:36;;;;;;;;;;;;;;;11.47;70.65;100290.09;5021089;28;19924;-85
2023/03/22 00:54:02;;;;;;;;;;;;;;;11.46;70.24;100283.16;5019508;28;20174;-85
2023/03/22 00:56:28;;;;;;;;;;;;;;;11.46;70.54;100283.16;5018490;28;20030;-85
2023/03/22 00:58:53;;;;;;;;;;;;;;;11.43;70.38;100278.16;5013497;28;19953;-84
2023/03/22 01:01:19;;;;;;;;;;;;;;;11.45;70.39;100272.72;5017247;28;19913;-85
2023/03/22 01:03:48;;;;;;;;;;;;;;;11.45;70.45;100270.06;5005403;28;19932;-85
2023/03/22 01:06:17;;;;;;;;;;;;;;;11.42;70.37;100265.09;5017366;28;19913;-85
2023/03/22 01:08:43;;;;;;;;;;;;;;;11.43;70.25;100261.44;5019494;28;19917;-85
2023/03/22 01:11:08;;;;;;;;;;;;;;;11.38;70.46;100258.47;5017724;28;19913;-85
2023/03/22 01:13:38;;;;;;;;;;;;;;;11.35;70.68;100259.63;5002089;28;19917;-85
2023/03/22 01:16:14;;;;;;;;;;;;;;;11.35;70.62;100251.69;5017982;28;20371;-85
2023/03/22 01:18:40;;;;;;;;;;;;;;;11.34;70.80;100251.84;5039855;28;19963;-85
2023/03/22 01:21:11;;;;;;;;;;;;;;;11.38;70.49;100247.88;5012857;28;19917;-85
2023/03/22 01:23:37;;;;;;;;;;;;;;;11.40;70.41;100246.72;5019043;28;19959;-85
2023/03/22 01:26:06;;;;;;;;;;;;;;;11.41;70.48;100247.53;5018567;28;19913;-85
2023/03/22 01:28:34;;;;;;;;;;;;;;;11.39;70.88;100247.72;5002471;28;19922;-85
2023/03/22 01:31:04;;;;;;;;;;;;;;;11.39;70.49;100244.22;5005544;28;20118;-85
2023/03/22 01:33:30;;;;;;;;;;;;;;;11.39;70.76;100242.44;5016689;28;20131;-85
2023/03/22 01:35:55;;;;;;;;;;;;;;;11.38;70.77;100239.94;5003685;28;19944;-85
2023/03/22 01:38:21;;;;;;;;;;;;;;;11.37;71.07;100238.25;5014412;28;20316;-85
2023/03/22 01:40:46;;;;;;;;;;;;;;;11.36;70.64;100231.31;5018638;28;19928;-85
2023/03/22 01:43:13;;;;;;;;;;;;;;;11.36;70.75;100231.31;5026668;28;19913;-85
2023/03/22 01:45:39;;;;;;;;;;;;;;;11.34;70.56;100233.31;5009386;28;19924;-85
2023/03/22 01:48:24;;;;;;;;;;;;;;;11.33;71.07;100232.50;5002109;28;19912;-85
2023/03/22 01:50:55;;;;;;;;;;;;;;;11.29;70.86;100247.03;5004584;28;19921;-85
2023/03/22 01:53:24;;;;;;;;;;;;;;;11.26;71.03;100237.59;5013792;28;20177;-85
2023/03/22 01:55:50;;;;;;;;;;;;;;;11.25;71.20;100237.78;4998690;28;19925;-85
2023/03/22 01:58:17;;;;;;;;;;;;;;;11.26;71.10;100242.06;4985739;28;20013;-85
2023/03/22 02:00:43;;;;;;;;;;;;;;;11.24;71.01;100244.06;5021409;28;19968;-85
2023/03/22 02:03:10;;;;;;;;;;;;;;;11.19;71.60;100249.84;4993727;28;19925;-85
2023/03/22 02:05:36;;;;;;;;;;;;;;;11.19;71.54;100236.59;5005902;28;19926;-85
2023/03/22 02:08:03;;;;;;;;;;;;;;;11.19;71.40;100233.13;5007844;28;19963;-85
2023/03/22 02:10:29;;;;;;;;;;;;;;;11.18;71.54;100236.78;5014612;28;19916;-85
2023/03/22 02:13:15;;;;;;;;;;;;;;;11.19;71.33;100239.25;5003349;28;20011;-85
2023/03/22 02:15:50;;;;;;;;;;;;;;;11.19;71.14;100235.78;5013155;28;19940;-84
2023/03/22 02:18:16;;;;;;;;;;;;;;;11.17;71.17;100238.56;5011250;28;20366;-85
2023/03/22 02:20:59;;;;;;;;;;;;;;;11.17;71.13;100233.28;5011257;28;19925;-85
2023/03/22 02:23:47;;;;;;;;;;;;;;;11.12;71.28;100226.84;5004726;28;19913;-86
2023/03/22 02:26:33;;;;;;;;;;;;;;;11.12;71.07;100232.13;5002158;28;19917;-85
2023/03/22 02:29:11;;;;;;;;;;;;;;;11.08;71.36;100226.31;5016267;28;19921;-86
2023/03/22 02:31:39;;;;;;;;;;;;;;;11.07;71.36;100224.66;5016209;28;19913;-85
2023/03/22 02:34:14;;;;;;;;;;;;;;;11.06;71.48;100228.31;5012413;28;19920;-85
2023/03/22 02:36:46;;;;;;;;;;;;;;;11.03;71.95;100224.16;5004601;28;20318;-85
2023/03/22 02:39:30;;;;;;;;;;;;;;;11.02;71.93;100226.97;5018467;28;19960;-85
2023/03/22 02:42:04;;;;;;;;;;;;;;;11.01;71.96;100227.94;5012610;28;19913;-84
2023/03/22 02:44:39;;;;;;;;;;;;;;;10.99;72.03;100227.31;5010690;28;19913;-85
2023/03/22 02:47:19;;;;;;;;;;;;;;;10.99;71.71;100220.19;5019591;28;19913;-85
2023/03/22 02:49:48;;;;;;;;;;;;;;;10.98;71.97;100226.47;4999650;28;19917;-85
2023/03/22 02:52:16;;;;;;;;;;;;;;;10.96;72.24;100217.03;5013040;28;19913;-85
2023/03/22 02:54:55;;;;;;;;;;;;;;;10.96;72.12;100227.63;4997843;28;19913;-85
2023/03/22 02:57:29;;;;;;;;;;;;;;;10.95;72.13;100207.44;5009717;28;19928;-85
2023/03/22 02:59:59;;;;;;;;;;;;;;;10.94;72.13;100209.28;5001732;28;20012;-85
2023/03/22 03:02:26;;;;;;;;;;;;;;;10.95;71.94;100208.28;5016678;28;19917;-85
2023/03/22 03:04:53;;;;;;;;;;;;;;;10.94;72.33;100208.41;5000998;28;19940;-85
2023/03/22 03:07:24;;;;;;;;;;;;;;;10.93;72.26;100199.66;5004740;28;20004;-85
2023/03/22 03:09:50;;;;;;;;;;;;;;;10.93;72.28;100196.19;5012247;28;19983;-85
2023/03/22 03:12:26;;;;;;;;;;;;;;;10.92;72.39;100199.84;5003168;28;20399;-85
2023/03/22 03:14:56;;;;;;;;;;;;;;;10.94;72.34;100205.78;5018389;28;19913;-85
2023/03/22 03:17:22;;;;;;;;;;;;;;;10.94;72.24;100203.97;4995857;28;19996;-85
2023/03/22 03:19:53;;;;;;;;;;;;;;;10.95;72.25;100204.81;5021985;28;19956;-85
2023/03/22 03:22:28;;;;;;;;;;;;;;;10.95;72.47;100199.50;5016157;28;19921;-85
2023/03/22 03:25:03;;;;;;;;;;;;;;;10.95;72.48;100207.44;5012165;28;19920;-85
2023/03/22 03:27:48;;;;;;;;;;;;;;;10.95;72.42;100205.63;5018745;28;20172;-85
2023/03/22 03:30:32;;;;;;;;;;;;;;;10.94;72.27;100205.78;5002893;28;19924;-86
2023/03/22 03:33:08;;;;;;;;;;;;;;;10.98;71.97;100212.41;5013802;28;19948;-85
2023/03/22 03:35:42;;;;;;;;;;;;;;;11.00;72.25;100205.16;5001043;28;19914;-85
2023/03/22 03:38:10;;;;;;;;;;;;;;;11.02;72.22;100213.75;4990391;28;19914;-85
2023/03/22 03:40:42;;;;;;;;;;;;;;;11.01;72.13;100207.63;5015312;28;19925;-85
2023/03/22 03:43:08;;;;;;;;;;;;;;;11.00;72.15;100203.31;5019266;28;20003;-85
2023/03/22 03:45:37;;;;;;;;;;;;;;;11.01;71.81;100207.63;5010509;28;19917;-85
2023/03/22 03:48:05;;;;;;;;;;;;;;;11.01;71.67;100205.00;5017044;28;19924;-85
2023/03/22 03:50:31;;;;;;;;;;;;;;;11.01;71.67;100201.50;5017002;28;20369;-85
2023/03/22 03:52:56;;;;;;;;;;;;;;;10.99;71.45;100204.31;5006711;28;19913;-84
2023/03/22 03:55:23;;;;;;;;;;;;;;;10.99;71.50;100199.03;5017554;28;19913;-84
2023/03/22 03:57:54;;;;;;;;;;;;;;;10.95;71.43;100189.75;5017978;28;19918;-84
2023/03/22 04:00:19;;;;;;;;;;;;;;;10.90;71.29;100194.72;5002902;28;19921;-85
2023/03/22 04:02:48;;;;;;;;;;;;;;;10.85;71.67;100181.16;5020929;28;19920;-85
2023/03/22 04:05:18;;;;;;;;;;;;;;;10.81;71.55;100185.91;5023044;28;19917;-85
2023/03/22 04:07:46;;;;;;;;;;;;;;;10.79;71.48;100177.31;5013626;28;20490;-85
2023/03/22 04:10:17;;;;;;;;;;;;;;;10.79;71.72;100177.31;5019507;28;20284;-85
2023/03/22 04:12:43;;;;;;;;;;;;;;;10.79;71.72;100185.25;5023613;28;19939;-85
2023/03/22 04:15:10;;;;;;;;;;;;;;;10.80;71.72;100186.09;5037434;28;19921;-84
2023/03/22 04:17:36;;;;;;;;;;;;;;;10.75;71.71;100183.09;5015689;28;19924;-84
2023/03/22 04:20:06;;;;;;;;;;;;;;;10.75;71.84;100178.66;5016506;28;19921;-85
2023/03/22 04:22:33;;;;;;;;;;;;;;;10.71;71.71;100177.31;5001905;28;19949;-84
2023/03/22 04:25:02;;;;;;;;;;;;;;;10.65;71.93;100171.81;5001804;28;19918;-84
2023/03/22 04:27:28;;;;;;;;;;;;;;;10.57;72.40;100180.56;5000040;28;19939;-84
2023/03/22 04:29:54;;;;;;;;;;;;;;;10.56;72.24;100179.75;5014068;28;20425;-84
2023/03/22 04:32:26;;;;;;;;;;;;;;;10.54;72.24;100170.31;5018220;28;19924;-84
2023/03/22 04:34:55;;;;;;;;;;;;;;;10.50;72.40;100164.50;4999468;28;20370;-84
2023/03/22 04:37:30;;;;;;;;;;;;;;;10.52;72.35;100173.13;5010433;28;19916;-84
2023/03/22 04:39:56;;;;;;;;;;;;;;;10.47;72.48;100170.13;5005095;28;19922;-85
2023/03/22 04:42:24;;;;;;;;;;;;;;;10.43;72.50;100154.75;5006292;28;19940;-84
2023/03/22 04:44:50;;;;;;;;;;;;;;;10.39;72.61;100160.34;5019079;28;19921;-84
2023/03/22 04:47:17;;;;;;;;;;;;;;;10.38;72.69;100153.41;5019845;28;19956;-84
2023/03/22 04:49:43;;;;;;;;;;;;;;;10.35;72.69;100155.53;5013976;28;19925;-84
2023/03/22 04:52:08;;;;;;;;;;;;;;;10.29;73.13;100161.44;5011754;28;19967;-84
2023/03/22 04:54:41;;;;;;;;;;;;;;;10.25;73.16;100160.94;5017508;28;20401;-84
2023/03/22 04:57:09;;;;;;;;;;;;;;;10.22;73.66;100161.22;4998532;28;19913;-85
2023/03/22 04:59:35;;;;;;;;;;;;;;;10.18;73.41;100158.09;5017081;28;20109;-83
2023/03/22 05:02:00;;;;;;;;;;;;;;;10.13;73.51;100155.09;5005449;28;19921;-84
2023/03/22 05:04:29;;;;;;;;;;;;;;;10.10;73.47;100152.75;5010948;28;19917;-84
2023/03/22 05:06:57;;;;;;;;;;;;;;;10.03;73.88;100159.66;5015624;28;19921;-84
2023/03/22 05:09:22;;;;;;;;;;;;;;;10.00;73.85;100163.44;5009869;28;20391;-84
2023/03/22 05:11:48;;;;;;;;;;;;;;;9.95;74.13;100152.50;5035372;28;19952;-84
2023/03/22 05:14:18;;;;;;;;;;;;;;;9.92;74.14;100158.13;5009680;28;20043;-84
2023/03/22 05:16:46;;;;;;;;;;;;;;;9.85;74.23;100159.72;5005941;28;19944;-84
2023/03/22 05:19:15;;;;;;;;;;;;;;;9.81;74.23;100165.47;5016511;28;20274;-84
2023/03/22 05:21:42;;;;;;;;;;;;;;;9.76;74.49;100163.28;5027552;28;19928;-84
2023/03/22 05:24:12;;;;;;;;;;;;;;;9.75;74.28;100162.47;5008646;28;19913;-84
2023/03/22 05:26:41;;;;;;;;;;;;;;;9.68;74.97;100171.19;5009004;28;19917;-84
2023/03/22 05:29:08;;;;;;;;;;;;;;;9.63;74.73;100168.16;5038080;28;19932;-84
2023/03/22 05:31:37;;;;;;;;;;;;;;;9.57;74.91;100170.41;5018535;28;19944;-84
2023/03/22 05:34:03;;;;;;;;;;;;;;;9.55;75.19;100168.91;5010119;28;19966;-84
2023/03/22 05:36:28;;;;;;;;;;;;;;;9.48;75.50;100166.06;5004393;28;19914;-84
2023/03/22 05:38:56;;;;;;;;;;;;;;;9.47;75.40;100171.50;5017240;28;19917;-84
2023/03/22 05:41:22;;;;;;;;;;;;;;;9.46;75.91;100173.34;5016294;28;19923;-84
2023/03/22 05:43:47;;;;;;;;;;;;;;;9.45;76.02;100181.38;5018005;28;19913;-83
2023/03/22 05:46:13;;;;;;;;;;;;;;;9.46;75.85;100175.13;5016446;28;20045;-83
2023/03/22 05:48:39;;;;;;;;;;;;;;;9.42;75.76;100185.16;5016940;28;19913;-84
2023/03/22 05:51:05;;;;;;;;;;;;;;;9.43;76.01;100186.81;5016340;28;19913;-84
2023/03/22 05:53:31;;;;;;;;;;;;;;;9.45;75.89;100184.84;5000853;28;19917;-83
2023/03/22 05:55:59;;;;;;;;;;;;;;;9.47;76.08;100184.72;5018502;28;19913;-83
2023/03/22 05:58:29;;;;;;;;;;;;;;;9.49;75.85;100186.22;5016098;28;19917;-83
2023/03/22 06:00:55;;;;;;;;;;;;;;;9.52;75.66;100187.72;5026789;28;19943;-83
2023/03/22 06:03:21;;;;;;;;;;;;;;;9.53;75.57;100192.00;5017093;28;19972;-84
2023/03/22 06:05:49;;;;;;;;;;;;;;;9.59;75.68;100193.22;5034429;28;19913;-84
2023/03/22 06:08:14;;;;;;;;;;;;;;;9.61;75.34;100193.91;5008782;28;20426;-84
2023/03/22 06:10:40;;;;;;;;;;;;;;;9.72;75.37;100186.53;5016638;28;19937;-84
2023/03/22 06:13:05;;;;;;;;;;;;;;;10.02;74.68;100191.53;5031387;28;19923;-84
2023/03/22 06:15:30;;;;;;;;;;;;;;;10.41;74.21;100186.59;5014902;28;20030;-84
2023/03/22 06:17:55;;;;;;;;;;;;;;;10.63;72.43;100193.16;5021219;28;19912;-84
2023/03/22 06:20:21;;;;;;;;;;;;;;;10.60;71.85;100188.16;5020567;28;20038;-84
2023/03/22 06:22:46;;;;;;;;;;;;;;;10.72;71.91;100196.63;5017465;28;19923;-83
2023/03/22 06:25:14;;;;;;;;;;;;;;;10.95;71.44;100199.50;5006352;28;19928;-83
2023/03/22 06:27:42;;;;;;;;;;;;;;;11.33;69.91;100200.72;5012741;28;19913;-84
2023/03/22 06:30:08;;;;;;;;;;;;;;;11.56;68.99;100192.09;5012243;28;19947;-84
2023/03/22 06:32:33;;;;;;;;;;;;;;;11.74;67.99;100190.09;5018695;28;19921;-84
2023/03/22 06:34:59;;;;;;;;;;;;;;;11.90;67.34;100187.47;5036917;28;19923;-84
2023/03/22 06:37:24;;;;;;;;;;;;;;;12.08;66.58;100186.44;5009924;28;19913;-84
2023/03/22 06:39:51;;;;;;;;;;;;;;;12.29;67.39;100191.16;5003243;28;20362;-84
2023/03/22 06:42:16;;;;;;;;;;;;;;;12.48;65.18;100188.09;5000228;28;20055;-84
2023/03/22 06:44:44;;;;;;;;;;;;;;;12.78;65.36;100179.53;5021140;28;19983;-84
2023/03/22 06:47:10;;;;;;;;;;;;;;;12.92;63.16;100181.44;5020298;28;20196;-84
2023/03/22 06:49:36;;;;;;;;;;;;;;;13.24;63.47;100196.31;5018662;28;19921;-84
2023/03/22 06:52:02;;;;;;;;;;;;;;;13.35;63.34;100195.94;5001595;28;19920;-84
2023/03/22 06:54:28;;;;;;;;;;;;;;;13.40;62.37;100195.38;5016684;28;20110;-84
2023/03/22 06:56:53;;;;;;;;;;;;;;;13.46;62.68;100201.81;5036892;28;19917;-84
2023/03/22 06:59:18;;;;;;;;;;;;;;;13.50;61.91;100197.81;5017862;28;19921;-84
2023/03/22 07:01:44;;;;;;;;;;;;;;;13.39;61.40;100196.38;5009455;28;19955;-84
2023/03/22 07:04:09;;;;;;;;;;;;;;;13.24;62.51;100193.66;5020556;28;19928;-84
2023/03/22 07:06:34;;;;;;;;;;;;;;;13.11;62.75;100204.03;5025218;28;19994;-84
2023/03/22 07:09:01;;;;;;;;;;;;;;;13.12;63.18;100205.69;5048210;28;19948;-84
2023/03/22 07:11:26;;;;;;;;;;;;;;;13.23;63.48;100199.97;5026722;28;19917;-84
2023/03/22 07:13:53;;;;;;;;;;;;;;;13.09;62.77;100209.53;5034127;28;19921;-84
2023/03/22 07:16:27;;;;;;;;;;;;;;;12.85;62.85;100209.66;5023988;28;19924;-85
2023/03/22 07:18:53;;;;;;;;;;;;;;;12.58;63.45;100208.28;5025000;28;19917;-84
2023/03/22 07:21:18;;;;;;;;;;;;;;;12.40;63.81;100208.53;5027280;28;19919;-84
2023/03/22 07:23:44;;;;;;;;;;;;;;;12.41;63.87;100211.00;5028124;28;20297;-84
2023/03/22 07:26:12;;;;;;;;;;;;;;;12.29;64.45;100215.84;5018716;28;20067;-84
2023/03/22 07:28:40;;;;;;;;;;;;;;;12.33;64.79;100214.53;5044657;28;20019;-84
2023/03/22 07:31:10;;;;;;;;;;;;;;;12.58;64.31;100205.63;5027473;28;19913;-84
2023/03/22 07:33:37;;;;;;;;;;;;;;;12.49;64.21;100207.53;5036666;28;20434;-84
2023/03/22 07:36:03;;;;;;;;;;;;;;;12.40;64.55;100219.97;5025113;28;19944;-85
2023/03/22 07:38:29;;;;;;;;;;;;;;;12.42;64.85;100217.13;5026063;28;19944;-84
2023/03/22 07:40:54;;;;;;;;;;;;;;;12.78;64.71;100214.84;5025059;28;19917;-84
2023/03/22 07:43:20;;;;;;;;;;;;;;;12.76;63.04;100214.19;5039449;28;20362;-84
2023/03/22 07:45:47;;;;;;;;;;;;;;;12.62;63.55;100213.09;5022776;28;19985;-85
2023/03/22 07:48:15;;;;;;;;;;;;;;;12.52;63.38;100215.94;5020875;28;19967;-85
2023/03/22 07:50:41;;;;;;;;;;;;;;;12.69;64.27;100221.19;5022058;28;19913;-84
2023/03/22 07:53:07;;;;;;;;;;;;;;;12.86;63.65;100221.94;5020678;28;19939;-84
2023/03/22 07:55:33;;;;;;;;;;;;;;;12.88;63.75;100220.75;5022422;28;19959;-84
2023/03/22 07:57:58;;;;;;;;;;;;;;;12.95;62.99;100219.06;5022807;28;19970;-85
2023/03/22 08:00:23;;;;;;;;;;;;;;;13.40;62.48;100216.63;5020174;28;19928;-84
2023/03/22 08:02:49;;;;;;;;;;;;;;;13.88;59.81;100213.75;5019356;28;19928;-85
2023/03/22 08:05:14;;;;;;;;;;;;;;;14.10;59.38;100218.16;5041052;28;19913;-85
2023/03/22 08:07:40;;;;;;;;;;;;;;;13.99;59.19;100216.78;5021747;28;19983;-85
2023/03/22 08:10:05;;;;;;;;;;;;;;;13.92;59.61;100218.50;5015140;28;20012;-85
2023/03/22 08:12:31;;;;;;;;;;;;;;;13.90;60.14;100212.56;5029122;28;19917;-84
2023/03/22 08:14:56;;;;;;;;;;;;;;;13.89;60.44;100207.41;5017370;28;19913;-85
2023/03/22 08:17:22;;;;;;;;;;;;;;;13.90;60.44;100215.22;5023574;28;19936;-85
2023/03/22 08:19:48;;;;;;;;;;;;;;;14.74;58.62;100214.94;5022474;28;19917;-85
2023/03/22 08:22:16;;;;;;;;;;;;;;;15.25;56.78;100219.38;5016635;28;19914;-85
2023/03/22 08:24:42;;;;;;;;;;;;;;;15.27;55.68;100207.50;5005452;28;20628;-85
2023/03/22 08:27:11;;;;;;;;;;;;;;;15.58;57.81;100208.19;5020746;28;19952;-85
2023/03/22 08:29:36;;;;;;;;;;;;;;;16.19;54.66;100213.81;5004617;28;19913;-85
2023/03/22 08:32:03;;;;;;;;;;;;;;;16.85;53.91;100215.16;5000387;28;19913;-86
2023/03/22 08:34:30;;;;;;;;;;;;;;;16.78;54.51;100207.13;5001035;28;19913;-85
2023/03/22 08:37:06;;;;;;;;;;;;;;;16.60;51.97;100209.50;5013319;28;20470;-85
2023/03/22 08:39:35;;;;;;;;;;;;;;;16.88;53.70;100204.09;5009208;28;19948;-85
2023/03/22 08:42:03;;;;;;;;;;;;;;;16.84;52.39;100194.84;5011266;28;19920;-85
2023/03/22 08:44:29;;;;;;;;;;;;;;;16.95;53.16;100202.25;5015079;28;20294;-85
2023/03/22 08:46:55;;;;;;;;;;;;;;;17.50;51.92;100194.13;5034696;28;19913;-85
2023/03/22 08:49:20;;;;;;;;;;;;;;;18.44;50.30;100188.41;5029809;28;19917;-85
2023/03/22 08:51:45;;;;;;;;;;;;;;;18.45;47.44;100190.09;5024773;28;19947;-85
2023/03/22 08:54:11;;;;;;;;;;;;;;;18.08;48.53;100193.47;5033115;28;20022;-86
2023/03/22 08:56:37;;;;;;;;;;;;;;;18.18;49.71;100191.19;5028916;28;19917;-85
2023/03/22 08:59:06;;;;;;;;;;;;;;;18.45;49.30;100189.25;5009627;28;20003;-85
2023/03/22 09:01:32;;;;;;;;;;;;;;;18.62;47.71;100178.91;4995340;28;19963;-85
2023/03/22 09:03:58;;;;;;;;;;;;;;;18.58;48.60;100183.84;4995718;28;20333;-85
2023/03/22 09:06:24;;;;;;;;;;;;;;;18.11;48.36;100177.81;4997939;28;19924;-85
2023/03/22 09:08:51;;;;;;;;;;;;;;;17.74;49.68;100168.59;5006406;28;19936;-85
2023/03/22 09:11:16;;;;;;;;;;;;;;;17.35;50.83;100170.25;5002273;28;19920;-85
2023/03/22 09:13:41;;;;;;;;;;;;;;;17.05;51.14;100159.94;5028064;28;19944;-85
2023/03/22 09:16:08;;;;;;;;;;;;;;;16.74;51.89;100163.97;5000909;28;20160;-85
2023/03/22 09:18:33;;;;;;;;;;;;;;;16.69;52.47;100160.25;5022013;28;19918;-85
2023/03/22 09:20:58;;;;;;;;;;;;;;;16.75;52.94;100164.78;5032214;28;20062;-85
2023/03/22 09:23:24;;;;;;;;;;;;;;;16.87;53.30;100157.84;5002407;28;20044;-84
2023/03/22 09:25:50;;;;;;;;;;;;;;;16.92;52.33;100157.25;5014955;28;19917;-85
2023/03/22 09:28:15;;;;;;;;;;;;;;;16.61;52.48;100163.09;5030713;28;20016;-85
2023/03/22 09:30:41;;;;;;;;;;;;;;;16.67;52.30;100151.63;5003632;28;20192;-84
2023/03/22 09:33:06;;;;;;;;;;;;;;;16.77;51.66;100154.72;5010541;28;19917;-85
2023/03/22 09:35:32;;;;;;;;;;;;;;;17.00;51.62;100158.94;5008042;28;19917;-85
2023/03/22 09:37:58;;;;;;;;;;;;;;;17.29;51.33;100157.72;5007541;28;19917;-85
2023/03/22 09:40:26;;;;;;;;;;;;;;;17.50;50.67;100143.34;5009975;28;20016;-85
2023/03/22 09:42:56;;;;;;;;;;;;;;;17.91;50.79;100155.66;5025012;28;20017;-85
2023/03/22 09:45:41;;;;;;;;;;;;;;;18.98;47.09;100138.13;5033283;28;19921;-85
2023/03/22 09:48:12;;;;;;;;;;;;;;;19.79;46.26;100135.63;5009187;28;19999;-86
2023/03/22 09:50:43;;;;;;;;;;;;;;;19.28;44.82;100148.19;5017069;28;19917;-85
2023/03/22 09:53:12;;;;;;;;;;;;;;;18.98;45.86;100145.34;5024252;28;19913;-85
2023/03/22 09:55:41;;;;;;;;;;;;;;;18.59;46.63;100148.00;5009604;28;19917;-85
2023/03/22 09:58:06;;;;;;;;;;;;;;;18.40;47.43;100138.19;5017745;28;19918;-86
2023/03/22 10:00:54;;;;;;;;;;;;;;;18.60;46.19;100133.56;5008217;28;20430;-85
2023/03/22 10:03:23;;;;;;;;;;;;;;;18.47;48.77;100138.97;5035472;28;19999;-85
2023/03/22 10:05:54;;;;;;;;;;;;;;;18.65;46.56;100139.09;5015701;28;19914;-85
2023/03/22 10:08:20;;;;;;;;;;;;;;;18.81;45.72;100123.59;5041284;28;20141;-85
2023/03/22 10:10:46;;;;;;;;;;;;;;;18.88;45.28;100119.84;5011315;28;19957;-85
2023/03/22 10:13:13;;;;;;;;;;;;;;;18.73;46.05;100126.50;5018155;28;19940;-85
2023/03/22 10:15:41;;;;;;;;;;;;;;;18.30;44.90;100117.22;5000842;28;20021;-85
2023/03/22 10:18:10;;;;;;;;;;;;;;;17.69;47.29;100110.41;5031084;28;19919;-85
2023/03/22 10:20:55;;;;;;;;;;;;;;;17.55;48.02;100111.44;5016909;28;19933;-85
2023/03/22 10:23:26;;;;;;;;;;;;;;;17.38;48.12;100108.38;5000207;28;19918;-85
2023/03/22 10:25:52;;;;;;;;;;;;;;;17.47;48.39;100103.63;5000131;28;19936;-85
2023/03/22 10:28:27;;;;;;;;;;;;;;;17.42;49.04;100098.91;5031445;28;20382;-85
2023/03/22 10:30:54;;;;;;;;;;;;;;;17.50;48.74;100111.25;5030188;28;19913;-85
2023/03/22 10:33:40;;;;;;;;;;;;;;;17.32;48.33;100111.88;5011685;28;20445;-85
2023/03/22 10:36:08;;;;;;;;;;;;;;;17.17;49.55;100118.25;5004306;28;20009;-85
2023/03/22 10:38:36;;;;;;;;;;;;;;;17.18;49.54;100113.72;5016718;28;19913;-85
2023/03/22 10:41:01;;;;;;;;;;;;;;;17.17;49.26;100110.22;5004964;28;19987;-85
2023/03/22 10:43:35;;;;;;;;;;;;;;;17.29;49.62;100104.28;5022061;28;19913;-85
2023/03/22 10:46:02;;;;;;;;;;;;;;;17.56;48.49;100102.38;5010817;28;19920;-85
2023/03/22 10:48:31;;;;;;;;;;;;;;;18.28;48.83;100105.91;5016211;28;19920;-85
2023/03/22 10:50:57;;;;;;;;;;;;;;;19.69;45.88;100093.22;5011399;28;20333;-85
2023/03/22 10:53:22;;;;;;;;;;;;;;;21.41;44.79;100100.81;5014013;28;19913;-85
2023/03/22 10:55:47;;;;;;;;;;;;;;;22.75;40.20;100098.16;5014208;28;19913;-85
2023/03/22 10:58:14;;;;;;;;;;;;;;;23.43;38.34;100112.50;5014265;28;20400;-84
2023/03/22 11:00:44;;;;;;;;;;;;;;;23.41;36.09;100099.28;5029950;28;20341;-83
2023/03/22 11:03:23;;;;;;;;;;;;;;;22.46;37.61;100095.50;4996535;28;19917;-85
2023/03/22 11:05:57;;;;;;;;;;;;;;;22.74;37.40;100102.75;4996508;28;19921;-84
2023/03/22 11:08:22;;;;;;;;;;;;;;;22.98;38.90;100097.22;5011050;28;19924;-83
2023/03/22 11:10:49;;;;;;;;;;;;;;;23.59;37.27;100100.06;5006505;28;19960;-85
2023/03/22 11:13:21;;;;;;;;;;;;;;;24.36;35.19;100078.38;5020143;28;19943;-85
2023/03/22 11:16:00;;;;;;;;;;;;;;;24.95;35.81;100079.50;5032061;28;20324;-85
2023/03/22 11:18:30;;;;;;;;;;;;;;;24.36;36.07;100080.28;5013364;28;20281;-85
2023/03/22 11:21:15;;;;;;;;;;;;;;;24.34;33.90;100087.81;5032414;28;20126;-84
2023/03/22 11:23:45;;;;;;;;;;;;;;;25.84;33.40;100072.53;5032613;28;19921;-85
2023/03/22 11:26:11;;;;;;;;;;;;;;;27.46;32.68;100078.50;5031120;28;19913;-85
2023/03/22 11:29:01;;;;;;;;;;;;;;;27.59;29.39;100079.81;5014878;28;19996;-85
2023/03/22 11:31:26;;;;;;;;;;;;;;;27.84;30.66;100069.97;5028610;28;19923;-85
2023/03/22 11:33:56;;;;;;;;;;;;;;;27.46;29.13;100058.66;5009562;28;19917;-85
2023/03/22 11:36:22;;;;;;;;;;;;;;;27.03;29.39;100063.56;5027663;28;20023;-85
2023/03/22 11:38:47;;;;;;;;;;;;;;;25.87;30.76;100044.94;5027806;28;20550;-85
2023/03/22 11:41:15;;;;;;;;;;;;;;;25.89;31.67;100056.31;4996952;28;19921;-85
2023/03/22 11:43:47;;;;;;;;;;;;;;;26.39;30.42;100056.75;5011310;28;20370;-85
2023/03/22 11:46:15;;;;;;;;;;;;;;;25.91;30.77;100050.63;5029204;28;19925;-85
2023/03/22 11:48:41;;;;;;;;;;;;;;;25.44;31.36;100044.16;5005057;28;19920;-85
2023/03/22 11:51:11;;;;;;;;;;;;;;;25.28;32.53;100045.13;5025798;28;20302;-85
2023/03/22 11:53:42;;;;;;;;;;;;;;;25.11;33.55;100040.66;5016900;28;19924;-84
2023/03/22 11:56:09;;;;;;;;;;;;;;;24.75;33.84;100028.75;5030701;28;19920;-85
2023/03/22 11:58:40;;;;;;;;;;;;;;;23.95;35.62;100037.41;5005793;28;20564;-85
2023/03/22 12:01:06;;;;;;;;;;;;;;;23.78;34.52;100025.84;5008240;28;19921;-85
2023/03/22 12:03:34;;;;;;;;;;;;;;;23.45;34.77;100019.44;5011198;28;19921;-85
2023/03/22 12:06:04;;;;;;;;;;;;;;;23.51;36.12;100023.03;4997538;28;19928;-85
2023/03/22 12:08:36;;;;;;;;;;;;;;;23.40;36.16;100024.78;5010571;28;19963;-85
2023/03/22 12:11:04;;;;;;;;;;;;;;;22.90;34.90;100014.84;5025716;28;19912;-85
2023/03/22 12:13:45;;;;;;;;;;;;;;;22.51;36.71;100009.34;5010811;28;19917;-85
2023/03/22 12:16:13;;;;;;;;;;;;;;;22.39;37.39;100016.69;5005378;28;19952;-85
2023/03/22 12:18:50;;;;;;;;;;;;;;;21.98;36.87;100007.81;5020807;28;19913;-84
2023/03/22 12:21:15;;;;;;;;;;;;;;;21.88;37.28;100003.06;5009116;28;19921;-85
2023/03/22 12:23:41;;;;;;;;;;;;;;;21.80;38.02;100003.41;5025712;28;20051;-85
2023/03/22 12:26:12;;;;;;;;;;;;;;;21.52;38.73;99988.03;5017660;28;19913;-85
2023/03/22 12:28:40;;;;;;;;;;;;;;;21.53;37.49;100001.28;5016697;28;20396;-85
2023/03/22 12:31:10;;;;;;;;;;;;;;;21.22;38.37;99991.69;5026163;28;19967;-84
2023/03/22 12:33:38;;;;;;;;;;;;;;;20.81;40.17;99987.22;5020674;28;20104;-84
2023/03/22 12:36:05;;;;;;;;;;;;;;;21.04;39.67;99981.06;5026558;28;19913;-85
2023/03/22 12:38:36;;;;;;;;;;;;;;;21.10;39.39;99982.81;5013345;28;19924;-84
2023/03/22 12:41:04;;;;;;;;;;;;;;;21.10;38.77;99972.06;5034188;28;19917;-84
2023/03/22 12:43:29;;;;;;;;;;;;;;;20.84;39.40;99962.59;5008939;28;19984;-84